createdAt,value
2022-11-08T00:02:42.391Z,99068.66
2022-11-08T00:07:03.171Z,99057.44
2022-11-08T00:11:23.351Z,99061.78
2022-11-08T00:15:24.933Z,99062.66
2022-11-08T00:19:27.044Z,99058.34
2022-11-08T00:23:28.393Z,99053.16
2022-11-08T00:27:29.741Z,99050.63
2022-11-08T00:31:31.405Z,99039.41
2022-11-08T00:35:32.724Z,99034.25
2022-11-08T00:39:34.235Z,99045.44
2022-11-08T00:43:35.604Z,99039.41
2022-11-08T00:47:36.871Z,99033.41
2022-11-08T00:51:38.237Z,99037.75
2022-11-08T00:55:39.879Z,99038.56
2022-11-08T00:59:41.221Z,99042.91
2022-11-08T01:03:42.680Z,99046.34
2022-11-08T01:07:44.039Z,99029.94
2022-11-08T01:11:46.635Z,99033.41
2022-11-08T01:15:48.651Z,99029.09
2022-11-08T01:19:49.970Z,99038.56
2022-11-08T01:23:51.612Z,99042.03
2022-11-08T01:27:52.885Z,99037.72
2022-11-08T01:31:54.210Z,99047.19
2022-11-08T01:35:55.849Z,99040.28
2022-11-08T01:39:57.192Z,99039.41
2022-11-08T01:43:59.131Z,99028.19
2022-11-08T01:48:00.733Z,99025.59
2022-11-08T01:52:14.329Z,99015.22
2022-11-08T01:56:15.863Z,99004.00
2022-11-08T02:00:17.843Z,99006.56
2022-11-08T02:04:19.575Z,98998.78
2022-11-08T02:08:30.316Z,98996.19
2022-11-08T02:12:32.099Z,98979.81
2022-11-08T02:16:33.419Z,98966.91
2022-11-08T02:20:35.211Z,98958.31
2022-11-08T02:24:36.710Z,98948.81
2022-11-08T02:28:42.449Z,98959.97
2022-11-08T02:32:43.791Z,98956.53
2022-11-08T02:36:47.473Z,98956.53
2022-11-08T02:40:50.424Z,98946.16
2022-11-08T02:44:51.710Z,98942.69
2022-11-08T02:48:53.168Z,98941.81
2022-11-08T02:52:54.476Z,98947.81
2022-11-08T02:56:55.768Z,98947.78
2022-11-08T03:00:57.491Z,98946.03
2022-11-08T03:04:58.811Z,98939.16
2022-11-08T03:09:00.205Z,98939.94
2022-11-08T03:13:03.538Z,98934.75
2022-11-08T03:17:04.999Z,98928.69
2022-11-08T03:21:06.285Z,98932.94
2022-11-08T03:25:07.744Z,98903.69
2022-11-08T03:29:09.124Z,98903.59
2022-11-08T03:33:10.616Z,98917.25
2022-11-08T03:37:11.959Z,98912.09
2022-11-08T03:41:13.259Z,98932.66
2022-11-08T03:45:15.178Z,98924.94
2022-11-08T03:49:16.540Z,98918.03
2022-11-08T03:53:17.808Z,98907.66
2022-11-08T03:57:19.090Z,98895.63
2022-11-08T04:01:20.403Z,98903.31
2022-11-08T04:05:22.248Z,98900.75
2022-11-08T04:09:23.496Z,98916.09
2022-11-08T04:13:43.864Z,98904.06
2022-11-08T04:18:05.495Z,98899.78
2022-11-08T04:22:07.706Z,98892.06
2022-11-08T04:26:11.544Z,98887.00
2022-11-08T04:30:12.906Z,98866.41
2022-11-08T04:34:14.199Z,98860.44
2022-11-08T04:38:16.057Z,98848.38
2022-11-08T04:42:17.589Z,98838.91
2022-11-08T04:46:20.144Z,98834.53
2022-11-08T04:50:21.623Z,98841.38
2022-11-08T04:54:23.015Z,98837.09
2022-11-08T04:58:24.239Z,98841.38
2022-11-08T05:02:27.428Z,98843.13
2022-11-08T05:06:30.199Z,98842.28
2022-11-08T05:10:31.664Z,98839.75
2022-11-08T05:14:32.982Z,98844.09
2022-11-08T05:18:34.851Z,98834.72
2022-11-08T05:22:54.955Z,98835.66
2022-11-08T05:26:56.672Z,98846.00
2022-11-08T05:30:58.283Z,98844.38
2022-11-08T05:34:59.591Z,98835.88
2022-11-08T05:39:00.823Z,98837.69
2022-11-08T05:43:02.167Z,98826.59
2022-11-08T05:47:03.473Z,98836.94
2022-11-08T05:51:05.072Z,98831.81
2022-11-08T05:55:06.624Z,98815.50
2022-11-08T05:59:08.031Z,98816.38
2022-11-08T06:03:09.585Z,98814.66
2022-11-08T06:07:10.956Z,98799.19
2022-11-08T06:11:17.032Z,98804.34
2022-11-08T06:15:18.398Z,98813.81
2022-11-08T06:19:19.639Z,98800.91
2022-11-08T06:23:21.532Z,98797.44
2022-11-08T06:27:22.894Z,98806.06
2022-11-08T06:31:24.423Z,98812.09
2022-11-08T06:35:25.741Z,98806.91
2022-11-08T06:39:27.220Z,98800.03
2022-11-08T06:43:28.745Z,98801.75
2022-11-08T06:47:30.286Z,98797.44
2022-11-08T06:51:31.624Z,98818.94
2022-11-08T06:55:33.732Z,98812.91
2022-11-08T06:59:35.162Z,98826.69
2022-11-08T07:03:37.247Z,98831.03
2022-11-08T07:07:39.042Z,98836.16
2022-11-08T07:11:40.638Z,98843.94
2022-11-08T07:15:42.047Z,98839.63
2022-11-08T07:19:44.639Z,98848.22
2022-11-08T07:23:45.909Z,98854.25
2022-11-08T07:27:47.291Z,98857.72
2022-11-08T07:31:48.584Z,98862.00
2022-11-08T07:35:49.891Z,98871.47
2022-11-08T07:39:53.003Z,98880.91
2022-11-08T07:43:56.643Z,98871.38
2022-11-08T07:48:24.089Z,98865.28
2022-11-08T07:52:39.335Z,98867.84
2022-11-08T07:56:40.648Z,98877.25
2022-11-08T08:00:42.746Z,98875.34
2022-11-08T08:04:48.075Z,98878.56
2022-11-08T08:08:51.451Z,98881.69
2022-11-08T08:12:52.857Z,98882.19
2022-11-08T08:16:54.536Z,98869.66
2022-11-08T08:20:56.239Z,98875.19
2022-11-08T08:25:02.758Z,98874.56
2022-11-08T08:29:04.583Z,98869.69
2022-11-08T08:37:29.140Z,98887.81
2022-11-08T09:06:25.480Z,98892.00
2022-11-08T09:50:28.822Z,98889.41
2022-11-08T10:04:26.185Z,98908.81
2022-11-08T10:08:46.420Z,98900.91
2022-11-08T11:53:12.566Z,98809.91
2022-11-08T12:36:02.920Z,98787.13
2022-11-08T12:50:29.426Z,98772.19
2022-11-08T13:01:23.842Z,98753.53
2022-11-08T13:30:23.127Z,98739.09
2022-11-08T19:40:05.529Z,98727.50
2022-11-08T20:03:20.893Z,98770.59
2022-11-08T20:07:24.065Z,98780.31
2022-11-08T20:11:36.390Z,98785.84
2022-11-08T20:15:38.061Z,98786.19
2022-11-08T20:19:43.724Z,98782.91
2022-11-08T20:23:46.431Z,98775.25
2022-11-08T20:32:09.636Z,98760.03
2022-11-08T20:36:34.844Z,98757.53
2022-11-08T20:45:17.271Z,98755.34
2022-11-08T20:49:33.837Z,98753.69
2022-11-08T20:54:14.889Z,98753.81
2022-11-08T21:02:39.186Z,98754.78
2022-11-08T21:06:48.703Z,98752.28
2022-11-08T21:15:27.260Z,98744.69
2022-11-08T21:19:57.539Z,98740.50
2022-11-08T21:24:25.027Z,98740.69
2022-11-08T21:28:54.815Z,98748.59
2022-11-08T21:33:06.522Z,98748.66
2022-11-08T21:37:16.689Z,98754.81
2022-11-08T21:41:18.941Z,98769.63
2022-11-08T21:45:36.898Z,98760.91
2022-11-08T22:17:23.146Z,98796.06
2022-11-08T22:21:40.990Z,98819.53
2022-11-08T22:25:43.999Z,98829.25
2022-11-08T22:29:46.202Z,98821.53
2022-11-08T22:33:48.184Z,98810.31
2022-11-08T22:37:49.519Z,98810.31
2022-11-08T22:41:52.559Z,98807.69
2022-11-08T22:45:53.798Z,98797.22
2022-11-08T22:49:55.099Z,98797.25
2022-11-08T22:53:56.371Z,98804.31
2022-11-08T22:57:57.653Z,98792.22
2022-11-08T23:01:58.913Z,98777.41
2022-11-08T23:06:00.287Z,98764.50
2022-11-08T23:10:01.572Z,98762.78
2022-11-08T23:14:21.815Z,98730.69
2022-11-08T23:18:23.847Z,98719.47
2022-11-08T23:22:44.451Z,98761.22
2022-11-08T23:27:04.604Z,98761.31
2022-11-08T23:31:35.342Z,98774.34
2022-11-08T23:35:36.707Z,98790.88
2022-11-08T23:40:01.392Z,98790.91
2022-11-08T23:44:21.345Z,98804.00
2022-11-08T23:48:22.770Z,98807.53
2022-11-08T23:52:24.048Z,98813.75
2022-11-08T23:56:26.403Z,98817.25
